Hlavní strana
METAR-TAF:

METAR-TAF

Letiště :

Fort-de-France, Martinik

zeměpisná šířka: 14-36N, zeměpisná délka: 061-00W, výška: 5 m

Aktuální stav počasí

Zpráva byla vytvořena před 18 minutami, v 23:30 UTC
Východní vítr 7 kt
Teplota 26°C
Vlhkost vzduchu 65%
Tlak 1019 hPa
Viditelnost 10 km a více
Polojasno ve výšce 3700 ft

METAR: TFFF 152330Z AUTO 09007KT 9999 SCT037 26/19 Q1019 TEMPO 10015G25KT

Čas: 19:48 (23:48 UTC)

Předpověď počasí

Zpráva byla vytvořena před 48 minutami, v 23:00 UTC
Předpověď platná od 16 v 00 UTC do 16 v 24 UTC
Východojihovýchodní vítr 8 kt
Viditelnost 10 km a více
Polojasno ve výšce 3000 ft
Pravděpodobnost 30% :
Dočasný
od 16 v 00 UTC do 16 v 16 UTC
Východní vítr 15 kt s nárazy do 25 kt

TAF: TFFF 152300Z 1600/1624 11008KT 9999 SCT030 PROB30 TEMPO 1600/1616 10015G25KT

Stav a předpovědi počasí z více než 4 000 letišť (zprávy METAR a TAF).

Červené a žluté tečky na mapě představují dostupné meteorologické stanice.

Když kurzor umístíte na tečku, zobrazí se název stanice.

Pak kliknutím zobrazíte stav a předpověď počasí.

Chcete-li změnit mapu, kliknutím na zelené tlačítko se znaménkem +mapu přiblížíte, kliknutím na zelené tlačítko se znaménkem – mapu oddálíte a kliknutím na zelené šipky přejdete na sousední mapy.


METAR-TAF: